createdAt,value
2019-01-16T00:02:11.587Z,99773.48
2019-01-16T00:05:03.940Z,99772.36
2019-01-16T00:07:53.464Z,99777.84
2019-01-16T00:10:49.791Z,99781.38
2019-01-16T00:13:31.258Z,99783.30
2019-01-16T00:16:13.738Z,99796.27
2019-01-16T00:19:10.174Z,99793.48
2019-01-16T00:21:59.549Z,99796.70
2019-01-16T00:24:59.113Z,99792.30
2019-01-16T00:27:58.895Z,99793.95
2019-01-16T00:30:43.446Z,99809.23
2019-01-16T00:33:52.053Z,99802.91
2019-01-16T00:36:45.176Z,99809.75
2019-01-16T00:39:41.543Z,99814.58
2019-01-16T00:42:30.609Z,99821.98
2019-01-16T00:45:30.411Z,99831.55
2019-01-16T00:48:33.280Z,99827.36
2019-01-16T00:51:26.720Z,99834.37
2019-01-16T00:54:15.663Z,99831.23
2019-01-16T00:57:16.483Z,99833.07
2019-01-16T01:00:05.798Z,99842.13
2019-01-16T01:03:04.502Z,99840.63
2019-01-16T01:05:54.603Z,99838.00
2019-01-16T01:08:39.552Z,99846.45
2019-01-16T01:11:32.862Z,99856.02
2019-01-16T01:14:22.151Z,99859.34
2019-01-16T01:17:11.221Z,99866.70
2019-01-16T01:20:16.750Z,99861.03
2019-01-16T01:23:07.218Z,99862.34
2019-01-16T01:26:03.169Z,99865.89
2019-01-16T01:28:59.491Z,99874.53
2019-01-16T01:31:50.450Z,99873.84
2019-01-16T01:34:50.075Z,99871.87
2019-01-16T01:37:40.505Z,99875.97
2019-01-16T01:40:25.166Z,99876.61
2019-01-16T01:43:21.395Z,99881.43
2019-01-16T01:46:23.769Z,99887.02
2019-01-16T01:49:20.092Z,99883.51
2019-01-16T01:52:19.535Z,99881.16
2019-01-16T01:55:12.807Z,99893.29
2019-01-16T01:58:03.210Z,99893.10
2019-01-16T02:00:53.664Z,99886.42
2019-01-16T02:03:50.023Z,99891.64
2019-01-16T02:06:41.089Z,99898.41
2019-01-16T02:09:26.964Z,99902.44
2019-01-16T02:12:14.768Z,99902.42
2019-01-16T02:15:03.879Z,99900.87
2019-01-16T02:17:57.167Z,99911.80
2019-01-16T02:21:05.751Z,99908.81
2019-01-16T02:23:56.978Z,99910.91
2019-01-16T02:26:53.168Z,99917.61
2019-01-16T02:29:42.509Z,99914.27
2019-01-16T02:32:31.718Z,99914.80
2019-01-16T02:35:22.204Z,99910.81
2019-01-16T02:38:13.671Z,99913.77
2019-01-16T02:41:13.063Z,99915.47
2019-01-16T02:43:53.728Z,99923.17
2019-01-16T02:46:59.542Z,99923.03
2019-01-16T02:49:41.882Z,99928.83
2019-01-16T02:52:34.061Z,99935.56
2019-01-16T02:55:43.116Z,99932.83
2019-01-16T02:58:45.896Z,99933.14
2019-01-16T03:01:26.179Z,99934.09
2019-01-16T03:04:19.493Z,99937.95
2019-01-16T03:07:12.968Z,99937.25
2019-01-16T03:10:12.448Z,99944.12
2019-01-16T03:13:15.078Z,99944.64
2019-01-16T03:16:02.999Z,99949.19
2019-01-16T03:18:45.714Z,99945.30
2019-01-16T03:21:28.625Z,99944.48
2019-01-16T03:24:19.859Z,99940.89
2019-01-16T03:27:06.974Z,99939.59
2019-01-16T03:30:09.354Z,99945.53
2019-01-16T03:33:05.776Z,99941.97
2019-01-16T03:35:56.340Z,99935.67
2019-01-16T03:38:45.467Z,99943.45
2019-01-16T03:41:26.311Z,99958.70
2019-01-16T03:44:15.609Z,99953.34
2019-01-16T03:47:21.153Z,99959.19
2019-01-16T03:50:17.926Z,99952.95
2019-01-16T03:53:26.535Z,99956.31
2019-01-16T03:56:19.940Z,99950.20
2019-01-16T03:59:09.343Z,99957.95
2019-01-16T04:02:01.473Z,99954.73
2019-01-16T04:04:58.007Z,99964.14
2019-01-16T04:07:54.233Z,99968.97
2019-01-16T04:10:43.959Z,99964.13
2019-01-16T04:13:32.982Z,99963.95
2019-01-16T04:16:32.660Z,99964.29
2019-01-16T04:19:28.974Z,99962.50
2019-01-16T04:22:18.909Z,99958.20
2019-01-16T04:25:18.124Z,99962.20
2019-01-16T04:28:08.991Z,99968.94
2019-01-16T04:31:07.431Z,99973.91
2019-01-16T04:33:57.928Z,99972.45
2019-01-16T04:36:47.375Z,99971.89
2019-01-16T04:39:40.859Z,99976.99
2019-01-16T04:42:34.159Z,99976.78
2019-01-16T04:45:25.228Z,99989.16
2019-01-16T04:48:19.074Z,99991.42
2019-01-16T04:51:17.166Z,99992.94
2019-01-16T04:54:26.178Z,99989.09
2019-01-16T04:57:16.590Z,99994.06
2019-01-16T05:00:05.824Z,99999.55
2019-01-16T05:03:02.633Z,99996.48
2019-01-16T05:05:49.570Z,100000.70
2019-01-16T05:08:40.304Z,99999.50
2019-01-16T05:11:50.122Z,99993.33
2019-01-16T05:14:40.886Z,100002.15
2019-01-16T05:17:46.970Z,100001.16
2019-01-16T05:20:40.491Z,100004.90
2019-01-16T05:23:39.849Z,100014.44
2019-01-16T05:26:20.314Z,100012.66
2019-01-16T05:29:19.724Z,100007.33
2019-01-16T05:32:19.154Z,100008.59
2019-01-16T05:35:15.825Z,100009.23
2019-01-16T05:38:05.350Z,100013.09
2019-01-16T05:41:10.648Z,100012.94
2019-01-16T05:43:59.952Z,100013.81
2019-01-16T05:46:50.457Z,100013.83
2019-01-16T05:49:55.996Z,100012.06
2019-01-16T05:52:49.392Z,100015.23
2019-01-16T05:55:39.881Z,100016.23
2019-01-16T05:58:39.519Z,100015.00
2019-01-16T06:01:28.800Z,100020.66
2019-01-16T06:04:18.568Z,100017.38
2019-01-16T06:07:09.125Z,100019.08
2019-01-16T06:09:59.694Z,100033.34
2019-01-16T06:12:58.507Z,100034.00
2019-01-16T06:15:48.830Z,100038.84
2019-01-16T06:18:48.538Z,100038.67
2019-01-16T06:21:38.883Z,100038.14
2019-01-16T06:24:47.809Z,100040.30
2019-01-16T06:27:38.837Z,100036.56
2019-01-16T06:30:26.665Z,100034.40
2019-01-16T06:33:17.328Z,100041.92
2019-01-16T06:36:26.151Z,100057.64
2019-01-16T06:39:22.796Z,100058.38
2019-01-16T06:42:14.842Z,100067.57
2019-01-16T06:45:11.206Z,100074.14
2019-01-16T06:48:00.628Z,100085.95
2019-01-16T06:51:06.450Z,100084.87
2019-01-16T06:54:03.414Z,100085.58
2019-01-16T06:57:06.189Z,100086.55
2019-01-16T06:59:55.008Z,100090.02
2019-01-16T07:02:56.422Z,100088.31
2019-01-16T07:05:47.070Z,100090.48
2019-01-16T07:08:49.912Z,100099.01
2019-01-16T07:11:55.829Z,100107.90
2019-01-16T07:14:51.557Z,100111.05
2019-01-16T07:17:45.387Z,100115.61
2019-01-16T07:20:41.844Z,100112.80
2019-01-16T07:23:26.655Z,100119.80
2019-01-16T07:26:20.201Z,100122.14
2019-01-16T07:29:26.183Z,100129.97
2019-01-16T07:32:16.627Z,100127.16
2019-01-16T07:35:30.498Z,100130.88
2019-01-16T07:38:49.487Z,100132.61
2019-01-16T07:42:29.662Z,100129.84
2019-01-16T07:45:20.861Z,100141.16
2019-01-16T07:48:26.847Z,100143.30
2019-01-16T07:51:23.394Z,100147.77
2019-01-16T07:54:12.839Z,100151.28
2019-01-16T07:57:03.159Z,100145.59
2019-01-16T08:00:02.563Z,100144.66
2019-01-16T08:03:04.837Z,100147.88
2019-01-16T08:07:58.970Z,100150.78
2019-01-16T08:10:48.434Z,100145.73
2019-01-16T08:13:49.138Z,100153.55
2019-01-16T08:16:39.883Z,100148.11
2019-01-16T08:19:56.459Z,100146.70
2019-01-16T08:22:58.883Z,100149.41
2019-01-16T08:25:58.874Z,100155.69
2019-01-16T08:28:49.646Z,100163.57
2019-01-16T08:31:40.110Z,100163.08
2019-01-16T08:34:53.318Z,100156.97
2019-01-16T08:37:51.415Z,100170.09
2019-01-16T08:40:55.503Z,100170.52
2019-01-16T08:44:16.533Z,100171.98
2019-01-16T08:47:15.195Z,100163.63
2019-01-16T08:50:32.414Z,100173.59
2019-01-16T08:53:22.659Z,100182.75
2019-01-16T08:56:20.452Z,100175.63
2019-01-16T08:59:21.767Z,100183.06
2019-01-16T09:02:12.282Z,100180.14
2019-01-16T09:05:13.218Z,100172.41
2019-01-16T09:08:00.615Z,100179.60
2019-01-16T09:11:03.804Z,100177.16
2019-01-16T09:13:54.310Z,100190.97
2019-01-16T09:16:42.457Z,100194.38
2019-01-16T09:19:32.797Z,100200.97
2019-01-16T09:22:23.318Z,100201.48
2019-01-16T09:25:33.086Z,100198.30
2019-01-16T09:28:23.629Z,100199.08
2019-01-16T09:31:13.154Z,100198.42
2019-01-16T09:34:08.048Z,100200.30
2019-01-16T09:37:08.771Z,100194.41
2019-01-16T09:39:59.579Z,100200.09
2019-01-16T09:42:54.390Z,100203.74
2019-01-16T09:45:49.423Z,100195.61
2019-01-16T09:48:35.518Z,100210.37
2019-01-16T09:51:23.492Z,100199.19
2019-01-16T09:54:15.179Z,100206.37
2019-01-16T09:57:19.019Z,100200.98
2019-01-16T10:00:09.412Z,100196.41
2019-01-16T10:03:14.350Z,100204.14
2019-01-16T10:06:12.076Z,100193.30
2019-01-16T10:09:03.870Z,100198.73
2019-01-16T10:11:46.396Z,100190.07
2019-01-16T10:14:41.116Z,100193.97
2019-01-16T10:17:37.393Z,100195.55
2019-01-16T10:20:33.381Z,100196.92
2019-01-16T10:23:24.134Z,100200.63
2019-01-16T10:26:18.880Z,100193.02
2019-01-16T10:29:10.221Z,100186.50
2019-01-16T10:32:04.776Z,100189.09
2019-01-16T10:34:53.013Z,100190.31
2019-01-16T10:37:46.852Z,100201.05
2019-01-16T10:40:47.693Z,100196.25
2019-01-16T10:43:34.205Z,100191.71
2019-01-16T10:46:25.895Z,100189.16
2019-01-16T10:49:18.272Z,100187.92
2019-01-16T10:52:24.901Z,100187.83
2019-01-16T10:55:15.091Z,100189.91
2019-01-16T10:58:05.659Z,100189.52
2019-01-16T11:01:06.287Z,100186.17
2019-01-16T11:04:07.032Z,100189.11
2019-01-16T11:06:58.489Z,100186.23
2019-01-16T11:09:56.317Z,100187.95
2019-01-16T11:12:47.941Z,100187.62
2019-01-16T11:15:58.018Z,100178.72
2019-01-16T11:18:51.198Z,100184.42
2019-01-16T11:21:50.613Z,100178.38
2019-01-16T11:24:41.147Z,100187.72
2019-01-16T11:27:41.680Z,100176.90
2019-01-16T11:30:48.727Z,100175.56
2019-01-16T11:33:42.922Z,100168.86
2019-01-16T11:36:41.831Z,100168.48
2019-01-16T11:39:42.736Z,100164.25
2019-01-16T11:42:33.286Z,100165.41
2019-01-16T11:45:28.680Z,100157.89
2019-01-16T11:48:19.142Z,100162.25
2019-01-16T11:51:10.814Z,100157.36
2019-01-16T11:54:01.396Z,100148.50
2019-01-16T12:00:42.461Z,100144.73
2019-01-16T12:03:37.413Z,100133.16
2019-01-16T12:06:44.051Z,100129.63
2019-01-16T12:09:43.408Z,100126.33
2019-01-16T12:12:34.098Z,100132.45
2019-01-16T12:15:26.389Z,100126.25
2019-01-16T12:18:30.145Z,100129.74
2019-01-16T12:21:26.317Z,100129.82
2019-01-16T12:24:13.181Z,100134.06
2019-01-16T12:27:12.495Z,100141.48
2019-01-16T12:30:04.804Z,100140.12
2019-01-16T12:33:03.184Z,100124.67
2019-01-16T12:36:00.590Z,100133.67
2019-01-16T12:38:55.316Z,100134.83
2019-01-16T12:41:59.363Z,100136.13
2019-01-16T12:44:55.047Z,100127.48
2019-01-16T12:47:49.706Z,100134.16
2019-01-16T12:50:51.715Z,100114.31
2019-01-16T12:54:08.098Z,100117.21
2019-01-16T12:57:10.469Z,100117.42
2019-01-16T13:00:06.491Z,100118.59
2019-01-16T13:03:23.470Z,100125.31
2019-01-16T13:06:21.214Z,100107.00
2019-01-16T13:09:11.654Z,100111.77
2019-01-16T13:12:03.288Z,100109.16
2019-01-16T13:15:00.948Z,100108.83
2019-01-16T13:18:01.649Z,100107.88
2019-01-16T13:21:00.953Z,100105.99
2019-01-16T13:24:04.751Z,100100.38
2019-01-16T13:27:02.981Z,100096.55
2019-01-16T13:30:08.938Z,100094.89
2019-01-16T13:33:06.688Z,100098.48
2019-01-16T13:36:01.369Z,100097.75
2019-01-16T13:38:45.987Z,100099.06
2019-01-16T13:44:05.408Z,100086.41
2019-01-16T13:46:57.281Z,100088.73
2019-01-16T13:49:46.248Z,100093.44
2019-01-16T13:52:45.019Z,100090.00
2019-01-16T13:55:45.685Z,100088.00
2019-01-16T13:58:23.766Z,100088.88
2019-01-16T14:01:15.524Z,100088.63
2019-01-16T14:04:13.118Z,100084.05
2019-01-16T14:07:03.513Z,100083.53
2019-01-16T14:09:58.543Z,100083.48
2019-01-16T14:12:49.038Z,100080.77
2019-01-16T14:15:49.685Z,100084.75
2019-01-16T14:18:44.367Z,100084.13
2019-01-16T14:21:42.214Z,100082.87
2019-01-16T14:24:36.591Z,100088.36
2019-01-16T14:27:40.481Z,100091.22
2019-01-16T14:30:36.493Z,100092.79
2019-01-16T14:33:26.858Z,100084.75
2019-01-16T14:36:17.134Z,100095.84
2019-01-16T14:39:10.396Z,100092.50
2019-01-16T14:42:02.293Z,100091.61
2019-01-16T14:44:56.963Z,100095.34
2019-01-16T14:47:51.518Z,100087.05
2019-01-16T14:50:32.169Z,100080.98
2019-01-16T14:53:30.852Z,100083.14
2019-01-16T14:56:25.473Z,100093.63
2019-01-16T14:59:22.912Z,100088.41
2019-01-16T15:02:14.740Z,100084.11
2019-01-16T15:05:04.972Z,100091.16
2019-01-16T15:07:59.572Z,100083.75
2019-01-16T15:10:49.894Z,100083.42
2019-01-16T15:13:36.945Z,100079.91
2019-01-16T15:16:21.968Z,100083.17
2019-01-16T15:19:13.491Z,100078.31
2019-01-16T15:21:55.156Z,100081.48
2019-01-16T15:24:39.327Z,100081.34
2019-01-16T15:27:30.935Z,100071.00
2019-01-16T15:30:25.375Z,100081.34
2019-01-16T15:33:23.311Z,100076.05
2019-01-16T15:36:24.005Z,100073.16
2019-01-16T15:39:17.277Z,100073.74
2019-01-16T15:41:59.255Z,100074.05
2019-01-16T15:44:58.604Z,100069.97
2019-01-16T15:47:52.109Z,100075.23
2019-01-16T15:50:42.575Z,100059.41
2019-01-16T15:53:40.231Z,100066.70
2019-01-16T15:56:24.619Z,100059.91
2019-01-16T15:59:16.235Z,100059.69
2019-01-16T16:02:06.713Z,100052.53
2019-01-16T16:04:57.155Z,100050.11
2019-01-16T16:07:47.456Z,100048.97
2019-01-16T16:10:39.631Z,100059.75
2019-01-16T16:13:29.895Z,100050.91
2019-01-16T16:16:26.696Z,100053.47
2019-01-16T16:19:17.145Z,100051.28
2019-01-16T16:22:25.555Z,100051.58
2019-01-16T16:25:26.680Z,100046.15
2019-01-16T16:28:21.338Z,100044.59
2019-01-16T16:31:13.001Z,100043.87
2019-01-16T16:34:07.634Z,100040.22
2019-01-16T16:37:17.588Z,100038.08
2019-01-16T16:40:01.558Z,100035.55
2019-01-16T16:43:04.872Z,100026.46
2019-01-16T16:45:44.690Z,100026.68
2019-01-16T16:48:37.431Z,100024.41
2019-01-16T16:51:26.935Z,100026.93
2019-01-16T16:54:17.588Z,100031.39
2019-01-16T16:57:21.250Z,100028.78
2019-01-16T17:00:39.677Z,100037.30
2019-01-16T17:03:31.797Z,100024.08
2019-01-16T17:06:41.485Z,100025.55
2019-01-16T17:09:31.323Z,100026.60
2019-01-16T17:12:27.063Z,100018.78
2019-01-16T17:15:11.585Z,100022.22
2019-01-16T17:18:03.461Z,100020.22
2019-01-16T17:20:53.530Z,100013.70
2019-01-16T17:23:43.975Z,100014.06
2019-01-16T17:26:34.314Z,100011.41
2019-01-16T17:29:33.608Z,100008.58
2019-01-16T17:32:28.112Z,100008.48
2019-01-16T17:35:34.877Z,100002.89
2019-01-16T17:38:31.639Z,100008.11
2019-01-16T17:41:23.245Z,100006.00
2019-01-16T17:44:13.450Z,100001.98
2019-01-16T17:47:07.973Z,99999.73
2019-01-16T17:49:52.696Z,100000.17
2019-01-16T17:52:42.720Z,99987.78
2019-01-16T17:55:49.578Z,99985.58
2019-01-16T17:58:47.254Z,99980.23
2019-01-16T18:01:30.424Z,99984.19
2019-01-16T18:04:22.005Z,99972.61
2019-01-16T18:07:12.306Z,99967.56
2019-01-16T18:10:10.477Z,99974.23
2019-01-16T18:13:00.921Z,99956.40
2019-01-16T18:15:52.545Z,99959.58
2019-01-16T18:18:43.034Z,99957.63
2019-01-16T18:21:34.672Z,99964.94
2019-01-16T18:24:39.362Z,99956.22
2019-01-16T18:27:31.093Z,99962.56
2019-01-16T18:30:36.154Z,99949.86
2019-01-16T18:33:23.382Z,99956.60
2019-01-16T18:36:08.717Z,99944.85
2019-01-16T18:39:12.297Z,99943.68
2019-01-16T18:42:03.911Z,99939.69
2019-01-16T18:44:50.784Z,99937.03
2019-01-16T18:47:41.184Z,99933.59
2019-01-16T18:50:34.070Z,99927.13
2019-01-16T18:53:24.520Z,99929.48
2019-01-16T18:56:22.733Z,99929.25
2019-01-16T18:59:11.121Z,99924.16
2019-01-16T19:02:02.787Z,99917.62
2019-01-16T19:04:55.230Z,99920.90
2019-01-16T19:07:45.624Z,99922.65
2019-01-16T19:10:52.472Z,99926.14
2019-01-16T19:13:53.645Z,99924.47
2019-01-16T19:16:44.553Z,99920.31
2019-01-16T19:19:35.736Z,99917.95
2019-01-16T19:22:19.365Z,99915.74
2019-01-16T19:25:03.067Z,99924.55
2019-01-16T19:27:47.497Z,99926.72
2019-01-16T19:30:32.968Z,99931.91
2019-01-16T19:33:31.188Z,99927.70
2019-01-16T19:36:28.956Z,99930.53
2019-01-16T19:39:35.351Z,99932.59
2019-01-16T19:42:37.865Z,99909.83
2019-01-16T19:45:29.144Z,99895.63
2019-01-16T19:48:20.870Z,99886.11
2019-01-16T19:51:12.974Z,99881.63
2019-01-16T19:54:19.706Z,99892.03
2019-01-16T19:57:23.692Z,99908.23
2019-01-16T20:00:33.442Z,99906.51
2019-01-16T20:03:28.303Z,99904.59
2019-01-16T20:06:19.158Z,99892.43
2019-01-16T20:09:33.247Z,99885.77
2019-01-16T20:12:28.707Z,99882.34
2019-01-16T20:15:21.037Z,99873.95
2019-01-16T20:18:09.972Z,99879.87
2019-01-16T20:21:05.505Z,99880.56
2019-01-16T20:23:55.963Z,99875.56
2019-01-16T20:26:47.583Z,99880.96
2019-01-16T20:29:45.184Z,99873.84
2019-01-16T20:32:37.464Z,99869.73
2019-01-16T20:35:31.960Z,99869.38
2019-01-16T20:38:23.788Z,99867.75
2019-01-16T20:41:30.376Z,99869.39
2019-01-16T20:44:17.768Z,99851.07
2019-01-16T20:47:12.330Z,99854.09
2019-01-16T20:50:06.693Z,99856.03
2019-01-16T20:53:17.473Z,99849.58
2019-01-16T20:56:12.633Z,99852.77
2019-01-16T20:59:24.401Z,99845.06
2019-01-16T21:02:19.039Z,99849.50
2019-01-16T21:06:52.850Z,99843.29
2019-01-16T21:09:40.640Z,99842.66
2019-01-16T21:14:07.180Z,99846.09
2019-01-16T21:17:04.543Z,99851.07
2019-01-16T21:20:15.011Z,99846.48
2019-01-16T21:23:24.566Z,99838.28
2019-01-16T21:26:48.090Z,99839.74
2019-01-16T21:29:54.498Z,99836.00
2019-01-16T21:32:53.556Z,99831.97
2019-01-16T21:35:59.676Z,99834.57
2019-01-16T21:38:54.168Z,99820.25
2019-01-16T21:41:38.661Z,99812.72
2019-01-16T21:45:03.350Z,99810.06
2019-01-16T21:51:17.005Z,99800.70
2019-01-16T21:54:08.954Z,99782.28
2019-01-16T21:57:14.176Z,99783.38
2019-01-16T22:00:10.615Z,99779.47
2019-01-16T22:03:12.667Z,99780.98
2019-01-16T22:06:05.737Z,99785.17
2019-01-16T22:09:06.265Z,99772.70
2019-01-16T22:12:01.518Z,99774.98
2019-01-16T22:15:02.689Z,99769.84
2019-01-16T22:18:06.602Z,99768.23
2019-01-16T22:21:08.334Z,99750.17
2019-01-16T22:24:06.360Z,99749.81
2019-01-16T22:27:00.319Z,99735.36
2019-01-16T22:29:50.907Z,99737.05
2019-01-16T22:32:47.559Z,99732.09
2019-01-16T22:35:50.520Z,99733.40
2019-01-16T22:38:45.390Z,99731.16
2019-01-16T22:41:39.019Z,99734.17
2019-01-16T22:44:54.890Z,99722.27
2019-01-16T22:48:02.121Z,99723.86
2019-01-16T22:50:58.332Z,99710.16
2019-01-16T22:54:18.490Z,99695.91
2019-01-16T22:57:15.400Z,99699.81
2019-01-16T23:00:10.567Z,99687.33
2019-01-16T23:03:04.293Z,99686.73
2019-01-16T23:05:55.329Z,99695.05
2019-01-16T23:08:49.288Z,99685.95
2019-01-16T23:11:40.026Z,99685.06
2019-01-16T23:14:32.004Z,99683.13
2019-01-16T23:17:24.279Z,99687.75
2019-01-16T23:20:14.272Z,99689.75
2019-01-16T23:23:01.474Z,99686.48
2019-01-16T23:25:51.126Z,99678.44
2019-01-16T23:28:35.594Z,99682.13
2019-01-16T23:31:26.332Z,99667.44
2019-01-16T23:34:10.915Z,99667.97
2019-01-16T23:37:02.095Z,99656.91
2019-01-16T23:40:09.189Z,99652.79
2019-01-16T23:43:01.498Z,99651.30
2019-01-16T23:45:53.456Z,99646.14
2019-01-16T23:48:51.227Z,99639.98
2019-01-16T23:51:49.685Z,99629.77
2019-01-16T23:54:44.461Z,99624.16
2019-01-16T23:57:51.688Z,99616.32
